Time;durP1;ratioP1;P1;durP2;ratioP2;P2;SDS_P1;SDS_P2;PMS_P1;PMS_P2;Temp;Humidity;BMP_temperature;BMP_pressure;BME280_temperature;BME280_humidity;BME280_pressure;Samples;Min_cycle;Max_cycle;Signal;HPM_P1;HPM_P2
2021/06/11 00:00:10;;;;;;;6.43;4.70;;;;;;;17.48;75.99;101258.44;5051966;28;20029;-73
2021/06/11 00:02:37;;;;;;;8.85;5.00;;;;;;;17.58;76.28;101249.53;5065836;28;20041;-73
2021/06/11 00:05:04;;;;;;;6.80;5.38;;;;;;;17.27;77.43;101243.97;5065223;28;20025;-73
2021/06/11 00:07:30;;;;;;;9.82;4.55;;;;;;;17.36;78.01;101241.69;5069877;28;20036;-73
2021/06/11 00:09:55;;;;;;;6.80;4.82;;;;;;;17.15;78.36;101236.94;5036477;28;20037;-73
2021/06/11 00:12:21;;;;;;;6.72;4.85;;;;;;;17.06;79.89;101244.69;5072674;28;20032;-74
2021/06/11 00:14:46;;;;;;;8.80;4.85;;;;;;;17.42;78.94;101240.16;5072968;28;20064;-74
2021/06/11 00:17:12;;;;;;;6.03;4.93;;;;;;;17.42;78.95;101246.34;5062684;28;20061;-73
2021/06/11 00:19:37;;;;;;;7.53;4.93;;;;;;;17.28;79.22;101240.91;5074975;28;20032;-73
2021/06/11 00:22:04;;;;;;;6.82;4.78;;;;;;;17.33;79.68;101234.28;5072804;28;20028;-73
2021/06/11 00:24:31;;;;;;;7.07;4.65;;;;;;;17.26;79.63;101237.78;5066994;28;20025;-73
2021/06/11 00:26:56;;;;;;;6.18;4.82;;;;;;;17.18;80.62;101241.63;5059341;28;20028;-73
2021/06/11 00:29:21;;;;;;;6.35;4.90;;;;;;;17.01;81.33;101232.22;5081219;28;20032;-73
2021/06/11 00:31:47;;;;;;;7.75;5.20;;;;;;;16.77;82.04;101232.16;5073463;28;20025;-73
2021/06/11 00:34:13;;;;;;;6.45;4.68;;;;;;;16.82;82.49;101229.84;5067568;28;20476;-74
2021/06/11 00:36:38;;;;;;;4.68;3.90;;;;;;;16.75;82.88;101226.31;5056651;28;20060;-73
2021/06/11 00:39:04;;;;;;;6.20;4.10;;;;;;;17.10;82.15;101226.44;5062600;28;20064;-73
2021/06/11 00:41:29;;;;;;;4.43;3.95;;;;;;;17.33;81.26;101226.88;5072137;28;20481;-74
2021/06/11 00:43:55;;;;;;;7.07;4.40;;;;;;;16.76;83.07;101227.88;5072214;28;20054;-73
2021/06/11 00:46:21;;;;;;;5.40;3.78;;;;;;;16.87;83.65;101218.59;5068846;28;20040;-74
2021/06/11 00:48:46;;;;;;;4.60;3.90;;;;;;;16.73;83.49;101223.19;5072432;28;20035;-73
2021/06/11 00:51:12;;;;;;;4.95;4.00;;;;;;;16.43;85.07;101223.41;5075494;28;20029;-74
2021/06/11 00:53:37;;;;;;;6.47;4.47;;;;;;;16.27;85.64;101212.84;5064713;28;20500;-73
2021/06/11 00:56:03;;;;;;;10.15;4.75;;;;;;;16.63;85.05;101213.03;5070820;28;20072;-73
2021/06/11 00:58:29;;;;;;;5.65;4.47;;;;;;;16.26;86.18;101208.53;5058475;28;20036;-74
2021/06/11 01:00:55;;;;;;;5.07;4.07;;;;;;;16.46;85.94;101211.75;5050355;28;20108;-73
2021/06/11 01:03:20;;;;;;;5.45;4.38;;;;;;;16.43;85.68;101209.03;5052605;28;20107;-73
2021/06/11 01:05:46;;;;;;;7.43;4.38;;;;;;;16.59;84.56;101209.53;5063377;28;20036;-74
2021/06/11 01:08:14;;;;;;;9.35;4.95;;;;;;;16.68;85.25;101212.69;5070658;28;20036;-73
2021/06/11 01:10:40;;;;;;;6.40;4.90;;;;;;;16.31;86.24;101210.13;5050030;28;20493;-73
2021/06/11 01:13:07;;;;;;;7.13;5.18;;;;;;;16.65;86.19;101208.00;5081360;28;20035;-73
2021/06/11 01:15:32;;;;;;;7.00;5.00;;;;;;;16.50;85.60;101215.31;5053170;28;20119;-73
2021/06/11 01:17:58;;;;;;;8.95;4.57;;;;;;;16.70;85.50;101218.53;5074646;28;20056;-73
2021/06/11 01:20:24;;;;;;;8.43;5.00;;;;;;;16.69;85.00;101212.28;5068936;28;20488;-73
2021/06/11 01:23:08;;;;;;;6.40;4.63;;;;;;;16.50;85.57;101206.38;5066751;28;20022;-74
2021/06/11 01:25:42;;;;;;;7.47;4.63;;;;;;;16.29;86.55;101204.28;5040918;28;20029;-73
2021/06/11 01:28:10;;;;;;;6.40;5.00;;;;;;;16.55;86.11;101203.31;5045571;28;20119;-74
2021/06/11 01:30:36;;;;;;;5.22;4.20;;;;;;;16.84;84.76;101210.44;5074303;28;20102;-74
2021/06/11 01:33:04;;;;;;;8.95;4.95;;;;;;;16.41;85.96;101214.84;5079284;28;20025;-73
2021/06/11 01:35:57;;;;;;;5.65;4.30;;;;;;;16.30;87.35;101210.50;5083907;28;20040;-73
2021/06/11 01:38:25;;;;;;;6.03;4.88;;;;;;;16.33;87.46;101201.59;5056040;28;20066;-73
2021/06/11 01:40:53;;;;;;;5.97;4.97;;;;;;;16.25;87.89;101204.28;5066410;28;20036;-73
2021/06/11 01:43:21;;;;;;;5.78;5.00;;;;;;;15.98;88.53;101202.94;5068392;28;20032;-73
2021/06/11 01:45:46;;;;;;;8.23;4.78;;;;;;;16.24;88.48;101204.63;5070617;28;20060;-73
2021/06/11 01:48:15;;;;;;;6.63;4.68;;;;;;;16.38;88.30;101212.88;5050703;28;20099;-73
2021/06/11 01:50:41;;;;;;;6.13;5.13;;;;;;;16.41;87.53;101214.84;5057160;28;20473;-74
2021/06/11 01:53:09;;;;;;;6.90;5.22;;;;;;;16.44;88.06;101216.00;5077200;28;20029;-73
2021/06/11 01:55:37;;;;;;;8.63;5.88;;;;;;;16.65;86.69;101213.44;5053049;28;20496;-73
2021/06/11 01:58:04;;;;;;;9.07;6.88;;;;;;;16.43;87.47;101211.75;5049068;28;20586;-74
2021/06/11 02:00:30;;;;;;;10.32;6.57;;;;;;;16.36;87.67;101211.69;5058043;28;20056;-73
2021/06/11 02:02:57;;;;;;;10.40;6.13;;;;;;;16.22;88.36;101213.16;5070865;28;20043;-73
2021/06/11 02:05:23;;;;;;;9.63;6.50;;;;;;;16.11;89.08;101215.03;5063308;28;20116;-74
2021/06/11 02:07:49;;;;;;;9.27;6.65;;;;;;;16.10;89.56;101218.16;5059407;28;20549;-74
2021/06/11 02:10:18;;;;;;;9.68;6.68;;;;;;;16.10;89.27;101210.00;5055882;28;20037;-74
2021/06/11 02:12:44;;;;;;;10.25;6.70;;;;;;;16.21;89.29;101221.72;5073969;28;20040;-73
2021/06/11 02:15:12;;;;;;;8.48;6.25;;;;;;;16.21;89.12;101221.72;5073394;28;20035;-73
2021/06/11 02:17:44;;;;;;;8.23;6.40;;;;;;;16.16;89.03;101217.41;5060428;28;20040;-74
2021/06/11 02:20:12;;;;;;;9.70;6.88;;;;;;;16.06;89.88;101209.97;5085446;28;20024;-74
2021/06/11 02:22:39;;;;;;;12.25;6.88;;;;;;;16.06;89.79;101214.63;5064118;28;20032;-74
2021/06/11 02:25:06;;;;;;;10.00;7.05;;;;;;;16.09;90.02;101209.22;5051562;28;20044;-74
2021/06/11 02:27:33;;;;;;;13.25;7.47;;;;;;;16.15;90.01;101218.56;5070521;28;20358;-73
2021/06/11 02:29:59;;;;;;;12.55;6.82;;;;;;;16.00;91.18;101211.50;5069174;28;20107;-73
2021/06/11 02:32:26;;;;;;;9.27;7.10;;;;;;;15.93;91.51;101208.69;5072247;28;20107;-74
2021/06/11 02:34:52;;;;;;;9.70;7.10;;;;;;;15.82;92.13;101209.78;5090056;28;20503;-73
2021/06/11 02:37:18;;;;;;;10.27;7.03;;;;;;;16.00;91.17;101208.78;5081311;28;20044;-74
2021/06/11 02:39:44;;;;;;;11.20;7.07;;;;;;;16.03;91.46;101216.16;5069222;28;20029;-73
2021/06/11 02:42:11;;;;;;;10.82;8.30;;;;;;;15.88;92.22;101209.06;5069742;28;20151;-73
2021/06/11 02:44:42;;;;;;;12.63;8.63;;;;;;;15.89;92.32;101209.84;5059503;28;20036;-73
2021/06/11 02:47:16;;;;;;;12.63;8.88;;;;;;;15.93;92.36;101205.97;5079391;28;20485;-74
2021/06/11 02:49:47;;;;;;;13.52;9.23;;;;;;;15.93;92.16;101208.69;5090255;28;20038;-73
2021/06/11 02:52:14;;;;;;;13.70;9.80;;;;;;;15.84;92.98;101200.09;5072957;28;20052;-74
2021/06/11 02:54:43;;;;;;;13.13;9.45;;;;;;;15.93;93.12;101205.97;5061153;28;20025;-74
2021/06/11 02:57:22;;;;;;;14.52;10.10;;;;;;;16.09;91.99;101213.84;5057973;28;20166;-73
2021/06/11 02:59:54;;;;;;;16.08;10.57;;;;;;;16.04;92.47;101209.56;5068642;28;20039;-73
2021/06/11 03:02:26;;;;;;;13.15;9.55;;;;;;;16.05;92.94;101213.84;5070164;28;20089;-73
2021/06/11 03:04:54;;;;;;;13.00;9.82;;;;;;;15.95;93.46;101203.66;5057953;28;20060;-74
2021/06/11 03:07:27;;;;;;;14.25;9.10;;;;;;;15.99;93.69;101204.47;5075769;28;20024;-73
2021/06/11 03:09:59;;;;;;;12.38;8.63;;;;;;;15.91;93.97;101205.56;5078508;28;20075;-74
2021/06/11 03:12:26;;;;;;;11.82;8.00;;;;;;;15.92;93.88;101206.38;5077758;28;20043;-74
2021/06/11 03:14:54;;;;;;;12.27;8.25;;;;;;;15.85;94.32;101215.22;5069679;28;20028;-73
2021/06/11 03:17:24;;;;;;;13.80;8.20;;;;;;;15.84;94.55;101208.25;5069430;28;20145;-74
2021/06/11 03:19:55;;;;;;;11.50;8.27;;;;;;;15.82;94.66;101207.84;5061640;28;20033;-74
2021/06/11 03:22:27;;;;;;;14.70;7.55;;;;;;;15.80;95.18;101206.66;5063814;28;20107;-74
2021/06/11 03:24:58;;;;;;;11.90;7.18;;;;;;;15.98;93.92;101213.00;5064998;28;20078;-73
2021/06/11 03:27:30;;;;;;;10.60;8.00;;;;;;;16.00;94.02;101206.06;5069313;28;20381;-74
2021/06/11 03:30:05;;;;;;;12.40;7.70;;;;;;;15.96;95.09;101207.16;5059819;28;20028;-74
2021/06/11 03:32:37;;;;;;;9.48;8.07;;;;;;;15.93;94.58;101199.78;5075096;28;20448;-73
2021/06/11 03:35:07;;;;;;;;;;;;;;;15.97;94.83;101206.00;5072199;28;20104;-73
2021/06/11 03:37:33;;;;;;;10.25;7.43;;;;;;;15.85;95.47;101201.66;5064726;28;19924;-73
2021/06/11 03:40:02;;;;;;;9.10;7.05;;;;;;;15.87;95.51;101212.16;5076761;28;20442;-74
2021/06/11 03:42:29;;;;;;;11.57;7.40;;;;;;;15.77;96.95;101212.84;5047179;28;20028;-73
2021/06/11 03:44:57;;;;;;;12.63;8.88;;;;;;;15.67;96.71;101216.25;5071494;28;20031;-73
2021/06/11 03:47:25;;;;;;;12.75;9.07;;;;;;;15.69;97.16;101206.59;5070094;28;20068;-73
2021/06/11 03:49:54;;;;;;;21.77;9.98;;;;;;;15.77;97.43;101205.50;5070672;28;20040;-73
2021/06/11 03:52:29;;;;;;;15.77;10.52;;;;;;;15.90;96.73;101206.75;5063828;28;20111;-74
2021/06/11 03:55:00;;;;;;;12.90;9.10;;;;;;;15.99;96.98;101198.25;5084878;28;20024;-73
2021/06/11 03:57:29;;;;;;;15.98;10.13;;;;;;;15.72;97.53;101200.38;5072549;28;20040;-73
2021/06/11 03:59:55;;;;;;;14.10;9.43;;;;;;;15.58;98.88;101207.66;5076584;28;20032;-73
2021/06/11 04:02:20;;;;;;;15.60;8.70;;;;;;;15.55;99.28;101211.09;5072845;28;20035;-73
2021/06/11 04:04:46;;;;;;;13.23;7.53;;;;;;;15.77;97.36;101213.63;5047766;28;20025;-73
2021/06/11 04:07:20;;;;;;;9.68;7.63;;;;;;;15.86;97.01;101205.16;5052517;28;20094;-73
2021/06/11 04:09:49;;;;;;;11.43;7.45;;;;;;;15.96;96.21;101204.47;5064885;28;20028;-73
2021/06/11 04:12:22;;;;;;;11.90;7.45;;;;;;;15.73;97.92;101201.16;5070135;28;20032;-73
2021/06/11 04:14:51;;;;;;;12.75;7.85;;;;;;;15.77;98.58;101202.78;5074950;28;20107;-73
2021/06/11 04:17:25;;;;;;;11.73;8.00;;;;;;;15.77;99.63;101201.97;5074344;28;20087;-73
2021/06/11 04:19:54;;;;;;;11.20;7.75;;;;;;;15.94;98.74;101206.78;5076225;28;20036;-73
2021/06/11 04:22:24;;;;;;;10.57;7.65;;;;;;;15.94;98.76;101210.28;5073813;28;20037;-73
2021/06/11 04:24:49;;;;;;;11.93;7.32;;;;;;;16.09;98.97;101205.72;5081505;28;20028;-73
2021/06/11 04:27:17;;;;;;;11.90;7.80;;;;;;;16.13;98.26;101209.22;5073473;28;20105;-73
2021/06/11 04:29:45;;;;;;;12.38;7.95;;;;;;;16.12;98.39;101208.44;5051853;28;20064;-73
2021/06/11 04:32:11;;;;;;;11.50;8.13;;;;;;;16.15;99.63;101217.78;5027982;28;20041;-73
2021/06/11 04:34:37;;;;;;;11.60;8.43;;;;;;;16.35;98.55;101213.66;5068384;28;20074;-74
2021/06/11 04:37:02;;;;;;;15.40;9.23;;;;;;;16.53;98.99;101211.06;5067535;28;20071;-73
2021/06/11 04:39:28;;;;;;;13.40;9.50;;;;;;;16.33;99.19;101213.25;5056427;28;20034;-73
2021/06/11 04:41:54;;;;;;;16.02;10.63;;;;;;;16.51;99.59;101205.22;5061850;28;20032;-73
2021/06/11 04:44:22;;;;;;;17.38;10.93;;;;;;;16.66;100.00;101215.00;5060275;28;20493;-72
2021/06/11 04:46:47;;;;;;;15.90;10.75;;;;;;;16.86;99.50;101211.59;5055429;28;20035;-74
2021/06/11 04:49:13;;;;;;;18.42;12.15;;;;;;;16.98;99.58;101213.19;5065700;28;20032;-73
2021/06/11 04:51:38;;;;;;;20.83;13.00;;;;;;;17.28;99.48;101212.88;5076185;28;20036;-74
2021/06/11 04:54:04;;;;;;;20.10;13.93;;;;;;;17.52;98.69;101214.88;5074804;28;20044;-73
2021/06/11 04:56:29;;;;;;;20.52;14.23;;;;;;;17.79;97.41;101207.88;5067795;28;20389;-74
2021/06/11 04:58:55;;;;;;;21.40;14.82;;;;;;;17.91;97.87;101211.00;5073343;28;20028;-74
2021/06/11 05:01:23;;;;;;;27.15;16.58;;;;;;;17.97;96.75;101208.66;5085698;28;20584;-74
2021/06/11 05:03:49;;;;;;;25.65;16.45;;;;;;;18.23;95.61;101197.34;5059119;28;20025;-74
2021/06/11 05:06:15;;;;;;;32.60;17.23;;;;;;;18.44;95.65;101201.97;5075534;28;20044;-74
2021/06/11 05:08:41;;;;;;;28.08;18.25;;;;;;;18.54;95.24;101203.91;5068344;28;20025;-74
2021/06/11 05:11:07;;;;;;;30.70;18.30;;;;;;;18.78;94.72;101206.53;5045860;28;20045;-74
2021/06/11 05:13:32;;;;;;;29.20;18.75;;;;;;;19.09;94.77;101193.13;5070938;28;20388;-74
2021/06/11 05:15:58;;;;;;;28.13;18.52;;;;;;;20.06;90.33;101211.94;5059357;28;20051;-74
2021/06/11 05:18:28;;;;;;;29.23;19.63;;;;;;;20.87;85.64;101203.59;5055865;28;20059;-74
2021/06/11 05:20:54;;;;;;;33.63;18.50;;;;;;;21.85;81.09;101198.69;5062778;28;20626;-74
2021/06/11 05:23:19;;;;;;;29.30;18.17;;;;;;;22.61;77.01;101197.66;5069573;28;20028;-74
2021/06/11 05:25:49;;;;;;;30.00;17.15;;;;;;;23.16;74.11;101200.41;5070308;28;20107;-74
2021/06/11 05:28:16;;;;;;;31.25;17.50;;;;;;;23.73;71.29;101210.84;5051975;28;20036;-74
2021/06/11 05:30:42;;;;;;;26.70;17.60;;;;;;;24.17;67.73;101206.63;5072238;28;20036;-74
2021/06/11 05:33:07;;;;;;;28.88;17.48;;;;;;;24.40;66.43;101200.88;5078293;28;20032;-75
2021/06/11 05:35:33;;;;;;;22.50;15.20;;;;;;;24.74;63.70;101192.81;5059021;22;20044;-72
2021/06/11 05:38:02;;;;;;;27.02;15.25;;;;;;;24.99;62.50;101198.38;5062916;28;20068;-73
2021/06/11 05:40:28;;;;;;;21.40;14.60;;;;;;;25.10;61.12;101189.78;5056153;28;20044;-73
2021/06/11 05:42:53;;;;;;;21.63;12.95;;;;;;;25.08;61.82;101199.69;5064901;28;20029;-73
2021/06/11 05:45:20;;;;;;;19.63;12.75;;;;;;;25.33;60.27;101199.69;5044041;28;20029;-73
2021/06/11 05:47:45;;;;;;;17.33;12.10;;;;;;;25.40;60.20;101199.50;5029562;28;20025;-73
2021/06/11 05:50:11;;;;;;;15.70;10.45;;;;;;;25.66;57.93;101198.25;5039749;28;20037;-73
2021/06/11 05:52:36;;;;;;;15.68;10.38;;;;;;;25.52;57.15;101207.00;5047153;28;20067;-74
2021/06/11 05:55:05;;;;;;;12.02;9.15;;;;;;;25.65;56.50;101204.97;5047889;28;20029;-74
2021/06/11 06:01:09;;;;;;;13.73;9.65;;;;;;;25.94;55.17;101208.34;5032479;28;20136;-72
2021/06/11 06:03:34;;;;;;;13.30;8.60;;;;;;;25.80;54.64;101201.31;5034020;28;20045;-73
2021/06/11 06:06:00;;;;;;;13.88;9.30;;;;;;;25.78;54.55;101195.44;5037901;28;20028;-72
2021/06/11 06:08:25;;;;;;;14.27;9.15;;;;;;;25.70;55.33;101193.38;5036318;28;20033;-73
2021/06/11 06:10:51;;;;;;;15.02;9.35;;;;;;;25.86;56.39;101191.25;5050435;28;20083;-72
2021/06/11 06:13:16;;;;;;;15.27;10.27;;;;;;;25.80;54.44;101187.50;5047855;28;20045;-73
2021/06/11 06:15:43;;;;;;;13.80;9.02;;;;;;;25.86;52.97;101182.97;5028297;28;20086;-73
2021/06/11 06:18:09;;;;;;;18.77;9.25;;;;;;;26.00;53.42;101192.00;5044637;28;20040;-73
2021/06/11 06:20:34;;;;;;;12.45;8.20;;;;;;;26.04;52.28;101179.59;5024964;28;20397;-73
2021/06/11 06:23:00;;;;;;;12.73;8.50;;;;;;;25.96;52.64;101183.06;5047465;28;20052;-73
2021/06/11 06:25:25;;;;;;;14.07;8.05;;;;;;;26.16;52.50;101186.31;5041593;28;20037;-73
2021/06/11 06:27:51;;;;;;;18.60;8.55;;;;;;;26.21;51.65;101183.75;5048517;28;20039;-72
2021/06/11 06:30:17;;;;;;;10.23;7.35;;;;;;;26.22;52.83;101177.00;5044305;28;20028;-72
2021/06/11 06:32:43;;;;;;;14.60;7.13;;;;;;;26.38;51.94;101185.13;5043637;28;20029;-74
2021/06/11 06:35:12;;;;;;;17.98;7.75;;;;;;;26.29;52.75;101187.78;5041843;28;20060;-74
2021/06/11 06:37:37;;;;;;;13.68;7.70;;;;;;;26.31;53.73;101190.09;5038663;28;20038;-74
2021/06/11 06:40:04;;;;;;;14.52;8.20;;;;;;;26.33;55.92;101185.69;5035046;28;20017;-73
2021/06/11 06:42:30;;;;;;;16.40;9.07;;;;;;;26.59;54.63;101189.09;5036751;28;20104;-72
2021/06/11 06:44:55;;;;;;;12.68;7.70;;;;;;;26.54;54.50;101192.41;5031327;28;20671;-72
2021/06/11 06:47:21;;;;;;;14.40;9.63;;;;;;;26.13;53.86;101182.44;5040256;28;20382;-72
2021/06/11 06:49:46;;;;;;;17.10;9.77;;;;;;;25.56;53.72;101180.84;5047083;28;20025;-72
2021/06/11 06:52:14;;;;;;;15.35;8.75;;;;;;;25.70;55.37;101185.88;5042107;28;20448;-72
2021/06/11 06:54:41;;;;;;;15.70;10.02;;;;;;;25.93;56.27;101182.72;5045168;28;20033;-72
2021/06/11 06:57:19;;;;;;;12.48;9.40;;;;;;;26.12;55.96;101183.69;5053819;28;20108;-72
2021/06/11 06:59:45;;;;;;;23.83;10.63;;;;;;;26.19;55.08;101180.66;5051710;28;20059;-72
2021/06/11 07:02:10;;;;;;;17.92;9.52;;;;;;;26.28;54.51;101179.97;5044711;28;20047;-72
2021/06/11 07:04:36;;;;;;;14.88;8.65;;;;;;;26.62;54.55;101182.63;5047430;28;20068;-72
2021/06/11 07:07:04;;;;;;;14.43;7.90;;;;;;;26.85;53.59;101195.25;5042828;28;20049;-72
2021/06/11 07:09:30;;;;;;;15.90;8.15;;;;;;;26.94;52.75;101187.78;5044084;28;20032;-72
2021/06/11 07:11:55;;;;;;;12.85;8.40;;;;;;;27.04;52.03;101189.34;5046362;28;20021;-73
2021/06/11 07:14:23;;;;;;;23.95;9.73;;;;;;;27.01;51.94;101189.47;5037764;28;20041;-72
2021/06/11 07:16:49;;;;;;;15.10;8.48;;;;;;;26.93;53.52;101186.22;5040879;28;20398;-72
2021/06/11 07:19:15;;;;;;;13.50;7.45;;;;;;;27.21;52.44;101190.66;5036763;28;20044;-72
2021/06/11 07:21:40;;;;;;;12.65;7.25;;;;;;;27.26;51.72;101192.03;5041207;28;20029;-72
2021/06/11 07:24:06;;;;;;;10.82;6.60;;;;;;;27.25;51.05;101185.75;5045151;28;20032;-72
2021/06/11 07:26:33;;;;;;;11.80;7.38;;;;;;;27.53;51.02;101190.16;5042663;28;20025;-72
2021/06/11 07:28:58;;;;;;;14.13;7.40;;;;;;;27.54;51.28;101190.94;5050909;28;20056;-72
2021/06/11 07:31:25;;;;;;;14.35;8.00;;;;;;;27.58;51.08;101192.31;5049975;28;20044;-72
2021/06/11 07:33:50;;;;;;;13.55;7.20;;;;;;;27.70;51.41;101198.94;5054480;28;20112;-72
2021/06/11 07:36:16;;;;;;;12.65;7.40;;;;;;;27.64;52.08;101193.25;5045828;28;20456;-72
2021/06/11 07:38:42;;;;;;;11.57;5.93;;;;;;;27.75;50.95;101206.66;5051162;28;20067;-72
2021/06/11 07:41:07;;;;;;;13.63;6.38;;;;;;;27.95;49.69;101201.47;5051432;28;20037;-73
2021/06/11 07:43:33;;;;;;;10.65;5.80;;;;;;;28.27;49.80;101192.56;5060120;28;20036;-72
2021/06/11 07:45:58;;;;;;;14.73;7.80;;;;;;;28.37;50.05;101185.00;5044201;28;20029;-72
2021/06/11 07:48:24;;;;;;;16.10;7.28;;;;;;;28.37;49.38;101190.53;5051286;28;20535;-73
2021/06/11 07:50:50;;;;;;;12.30;6.50;;;;;;;28.41;49.54;101191.94;5052284;28;20041;-72
2021/06/11 07:53:15;;;;;;;14.93;5.55;;;;;;;28.41;50.14;101196.69;5048481;28;20495;-73
2021/06/11 07:55:41;;;;;;;15.00;7.25;;;;;;;28.62;48.86;101194.97;5043135;28;20056;-72
2021/06/11 07:58:07;;;;;;;15.00;6.70;;;;;;;28.76;47.38;101199.88;5049880;28;20086;-72
2021/06/11 08:00:33;;;;;;;9.95;5.43;;;;;;;28.67;49.17;101194.38;5027464;28;20151;-73
2021/06/11 08:03:00;;;;;;;10.65;4.65;;;;;;;28.88;47.59;101204.47;5031891;28;20036;-73
2021/06/11 08:05:28;;;;;;;10.93;5.43;;;;;;;28.81;46.88;101199.25;5046104;28;20044;-72
2021/06/11 08:07:54;;;;;;;11.82;5.15;;;;;;;28.82;47.36;101198.03;5044653;28;20033;-72
2021/06/11 08:10:21;;;;;;;15.55;4.30;;;;;;;29.14;47.34;101194.53;5042477;28;20030;-72
2021/06/11 08:12:46;;;;;;;10.32;5.18;;;;;;;29.12;46.95;101202.53;5035235;28;20061;-72
2021/06/11 08:15:13;;;;;;;11.00;4.75;;;;;;;29.16;47.01;101206.72;5034977;28;20142;-72
2021/06/11 08:17:38;;;;;;;10.25;4.63;;;;;;;29.11;47.22;101198.97;5046707;28;20031;-72
2021/06/11 08:20:09;;;;;;;13.25;4.90;;;;;;;28.86;47.67;101193.81;5048384;28;20037;-73
2021/06/11 08:22:36;;;;;;;8.52;4.32;;;;;;;29.10;46.84;101191.13;5048933;28;20060;-72
2021/06/11 08:25:01;;;;;;;10.43;4.38;;;;;;;29.32;46.36;101191.69;5050316;28;20033;-73
2021/06/11 08:27:27;;;;;;;6.00;4.20;;;;;;;29.49;46.35;101187.25;5047270;28;20416;-72
2021/06/11 08:29:52;;;;;;;8.68;3.28;;;;;;;29.46;45.76;101185.44;5045203;28;20393;-73
2021/06/11 08:32:18;;;;;;;6.05;3.60;;;;;;;29.53;45.73;101176.75;5050789;28;20040;-73
2021/06/11 08:34:44;;;;;;;7.28;3.20;;;;;;;29.48;46.27;101182.94;5049366;28;20075;-73
2021/06/11 08:37:10;;;;;;;6.05;2.67;;;;;;;29.67;46.48;101183.59;5045740;28;20041;-73
2021/06/11 08:39:36;;;;;;;6.40;2.50;;;;;;;29.69;46.15;101189.47;5040240;28;20029;-73
2021/06/11 08:42:04;;;;;;;6.10;3.50;;;;;;;29.77;45.33;101180.31;5045708;28;20037;-73
2021/06/11 08:44:30;;;;;;;8.35;3.10;;;;;;;30.02;45.19;101187.38;5038029;28;20035;-73
2021/06/11 08:46:55;;;;;;;6.57;3.20;;;;;;;30.12;45.24;101178.47;5049324;28;20178;-73
2021/06/11 08:49:23;;;;;;;4.57;2.90;;;;;;;30.22;45.60;101182.72;5046025;28;20040;-73
2021/06/11 08:51:51;;;;;;;4.85;3.22;;;;;;;30.10;45.38;101177.44;5048010;28;20670;-72
2021/06/11 08:54:16;;;;;;;4.53;2.60;;;;;;;30.20;45.24;101185.22;5049869;28;20029;-73
2021/06/11 08:56:42;;;;;;;7.43;3.00;;;;;;;30.15;44.23;101190.66;5048520;28;20021;-73
2021/06/11 08:59:08;;;;;;;4.07;3.10;;;;;;;30.15;44.51;101182.31;5042959;28;20032;-73
2021/06/11 09:01:33;;;;;;;7.95;3.95;;;;;;;30.40;44.69;101192.94;5049674;28;20048;-73
2021/06/11 09:03:59;;;;;;;6.72;3.42;;;;;;;30.63;44.59;101196.88;5049191;28;20519;-73
2021/06/11 09:06:25;;;;;;;5.80;3.05;;;;;;;30.68;44.54;101190.66;5029431;28;20028;-73
2021/06/11 09:08:58;;;;;;;5.25;3.20;;;;;;;30.82;44.22;101192.63;5047350;28;20040;-73
2021/06/11 09:11:32;;;;;;;6.53;3.17;;;;;;;30.81;44.23;101191.88;5048949;28;20036;-73
2021/06/11 09:14:00;;;;;;;6.00;3.80;;;;;;;30.77;43.86;101187.75;5047127;28;20032;-73
2021/06/11 09:16:27;;;;;;;6.43;3.03;;;;;;;30.86;44.73;101185.66;5049258;28;20085;-73
2021/06/11 09:18:59;;;;;;;9.13;3.17;;;;;;;30.77;44.71;101182.19;5048968;28;20507;-73
2021/06/11 09:21:28;;;;;;;7.93;2.83;;;;;;;31.10;45.06;101182.75;5048730;28;20538;-73
2021/06/11 09:27:04;;;;;;;5.63;3.58;;;;;;;31.34;44.15;101179.81;5052494;28;20036;-73
2021/06/11 09:29:43;;;;;;;7.40;2.90;;;;;;;31.40;43.66;101178.63;5046444;28;20095;-73
2021/06/11 09:32:27;;;;;;;6.13;3.70;;;;;;;31.23;44.81;101177.63;5041511;28;20037;-73
2021/06/11 09:34:58;;;;;;;9.60;3.10;;;;;;;31.48;44.65;101179.00;5044224;28;20033;-73
2021/06/11 09:37:28;;;;;;;6.68;2.88;;;;;;;31.49;43.81;101175.75;5046432;28;20133;-73
2021/06/11 09:40:03;;;;;;;6.90;3.83;;;;;;;31.44;43.46;101161.72;5048423;28;20035;-73
2021/06/11 09:42:34;;;;;;;8.90;3.20;;;;;;;31.39;43.75;101179.13;5050556;28;20068;-73
2021/06/11 09:45:08;;;;;;;5.25;3.40;;;;;;;31.74;43.29;101175.03;5043064;28;20068;-73
2021/06/11 09:47:47;;;;;;;7.32;4.05;;;;;;;31.80;43.06;101178.66;5058323;28;20657;-73
2021/06/11 09:50:19;;;;;;;10.05;4.43;;;;;;;31.56;42.55;101166.19;5042174;28;20558;-73
2021/06/11 09:53:09;;;;;;;4.70;4.05;;;;;;;31.74;42.39;101169.47;5049451;28;20039;-73
2021/06/11 09:55:42;;;;;;;4.63;3.60;;;;;;;31.90;42.32;101168.88;5046586;28;20040;-73
2021/06/11 09:58:21;;;;;;;8.10;3.97;;;;;;;32.01;41.26;101173.88;5049404;28;20037;-73
2021/06/11 10:01:11;;;;;;;5.07;3.60;;;;;;;32.37;41.56;101170.41;5046906;28;20036;-73
2021/06/11 10:03:39;;;;;;;6.05;3.63;;;;;;;32.42;41.74;101166.94;5037046;28;20071;-73
2021/06/11 10:06:09;;;;;;;7.47;3.30;;;;;;;32.39;41.14;101172.72;5046440;28;20056;-73
2021/06/11 10:08:36;;;;;;;10.07;4.03;;;;;;;32.39;41.70;101165.13;5044031;28;20393;-73
2021/06/11 10:11:05;;;;;;;5.70;3.78;;;;;;;32.24;41.57;101170.03;5050583;28;20040;-73
2021/06/11 10:13:31;;;;;;;6.85;3.53;;;;;;;32.00;42.17;101154.84;5044327;28;20514;-73
2021/06/11 10:16:01;;;;;;;6.97;3.30;;;;;;;32.22;41.88;101160.63;5058155;28;20493;-73
2021/06/11 10:18:26;;;;;;;7.68;4.00;;;;;;;31.97;41.69;101156.56;5046927;28;20032;-73
2021/06/11 10:20:52;;;;;;;8.40;3.80;;;;;;;31.73;41.74;101153.22;5043487;28;20033;-73
2021/06/11 10:23:22;;;;;;;8.43;3.67;;;;;;;32.21;41.03;101159.84;5043517;28;20044;-73
2021/06/11 10:25:51;;;;;;;5.88;3.28;;;;;;;32.40;40.36;101144.34;5049537;28;20029;-73
2021/06/11 10:28:20;;;;;;;4.20;3.15;;;;;;;32.56;40.51;101154.91;5052197;28;20043;-73
2021/06/11 10:30:48;;;;;;;6.32;2.80;;;;;;;32.68;40.51;101158.53;5045162;28;20549;-73
2021/06/11 10:33:14;;;;;;;4.40;3.25;;;;;;;32.89;39.74;101151.59;5048287;28;20040;-73
2021/06/11 10:35:46;;;;;;;7.65;3.45;;;;;;;32.94;39.79;101159.25;5047067;28;20052;-73
2021/06/11 10:38:30;;;;;;;6.38;4.15;;;;;;;33.12;39.82;101155.34;5044472;28;20043;-73
2021/06/11 10:41:01;;;;;;;7.32;4.28;;;;;;;33.24;39.87;101151.31;5047767;28;20021;-73
2021/06/11 10:43:29;;;;;;;7.60;3.95;;;;;;;33.20;40.12;101157.16;5046166;28;20037;-73
2021/06/11 10:45:58;;;;;;;4.68;4.18;;;;;;;33.24;40.06;101157.69;5043706;28;20029;-73
2021/06/11 10:48:25;;;;;;;5.43;3.78;;;;;;;33.24;40.06;101157.69;5044360;28;20028;-73
2021/06/11 10:50:51;;;;;;;6.45;4.53;;;;;;;32.96;40.53;101162.34;5026298;28;20024;-73
2021/06/11 10:53:31;;;;;;;6.60;3.80;;;;;;;33.28;40.64;101155.44;5048586;28;20033;-72
2021/06/11 10:56:12;;;;;;;7.57;3.83;;;;;;;33.49;40.04;101148.44;5039854;28;20040;-72
2021/06/11 10:58:39;;;;;;;8.45;4.57;;;;;;;33.55;40.06;101152.03;5045150;28;20049;-72
2021/06/11 11:01:28;;;;;;;6.63;3.83;;;;;;;33.41;40.32;101147.34;5047006;28;20033;-72
2021/06/11 11:03:56;;;;;;;5.38;2.95;;;;;;;33.59;40.64;101133.00;5044188;28;20393;-72
2021/06/11 11:06:33;;;;;;;6.05;3.33;;;;;;;33.66;40.04;101142.94;5047559;28;20024;-72
2021/06/11 11:09:02;;;;;;;7.75;2.95;;;;;;;33.79;39.56;101145.25;5046285;28;20481;-72
2021/06/11 11:11:29;;;;;;;8.88;3.40;;;;;;;33.72;39.87;101143.72;5055292;28;20488;-72
2021/06/11 11:13:54;;;;;;;5.65;3.72;;;;;;;33.84;39.56;101131.28;5040790;28;20070;-73
2021/06/11 11:16:22;;;;;;;5.28;3.63;;;;;;;33.51;40.30;101131.94;5051417;28;21567;-72
2021/06/11 11:18:48;;;;;;;7.05;3.50;;;;;;;33.50;39.69;101133.22;5047463;28;20041;-72
2021/06/11 11:21:46;;;;;;;3.67;3.10;;;;;;;33.68;38.86;101126.41;5047580;28;20048;-72
2021/06/11 11:24:13;;;;;;;5.90;3.15;;;;;;;33.89;39.60;101133.34;5045932;28;20041;-73
2021/06/11 11:26:48;;;;;;;4.90;2.47;;;;;;;34.02;38.41;101122.47;5046390;28;20052;-74
2021/06/11 11:29:16;;;;;;;3.88;2.63;;;;;;;34.16;38.12;101132.66;5039507;28;20032;-72